Time;durP1;ratioP1;P1;durP2;ratioP2;P2;SDS_P1;SDS_P2;PMS_P1;PMS_P2;Temp;Humidity;BMP_temperature;BMP_pressure;BME280_temperature;BME280_humidity;BME280_pressure;Samples;Min_cycle;Max_cycle;Signal;HPM_P1;HPM_P2
2023/10/19 00:00:21;;;;;;;8.77;6.43;;;;;;;13.68;64.59;98947.06;693309;28;1416;-92
2023/10/19 00:00:48;;;;;;;8.20;6.30;;;;;;;13.70;64.65;98950.50;690556;28;1233;-92
2023/10/19 00:01:11;;;;;;;9.80;6.60;;;;;;;13.64;64.65;98924.38;688034;28;1220;-93
2023/10/19 00:01:34;;;;;;;10.02;6.70;;;;;;;13.71;64.60;98941.75;687066;28;1202;-92
2023/10/19 00:01:58;;;;;;;9.35;6.53;;;;;;;13.74;64.86;98939.97;693214;28;1227;-93
2023/10/19 00:02:19;;;;;;;12.05;6.15;;;;;;;13.69;64.47;98938.31;693241;28;1421;-92
2023/10/19 00:02:40;;;;;;;12.05;6.30;;;;;;;13.70;64.48;98940.03;695864;28;1423;-92
2023/10/19 00:03:02;;;;;;;13.38;6.90;;;;;;;13.67;64.56;98928.72;695542;28;1291;-92
2023/10/19 00:03:24;;;;;;;9.65;6.88;;;;;;;13.78;64.54;98942.53;695485;28;1208;-92
2023/10/19 00:03:45;;;;;;;9.88;7.03;;;;;;;13.76;64.31;98930.34;693066;28;1274;-92
2023/10/19 00:04:07;;;;;;;10.48;7.20;;;;;;;13.73;64.49;98928.63;692866;28;1326;-92
2023/10/19 00:04:32;;;;;;;10.38;7.40;;;;;;;13.78;64.64;98931.19;695936;28;1329;-92
2023/10/19 00:04:53;;;;;;;10.15;7.40;;;;;;;13.77;64.57;98924.22;690051;28;1335;-92
2023/10/19 00:05:15;;;;;;;9.00;6.93;;;;;;;13.71;64.56;98914.69;693176;28;1172;-91
2023/10/19 00:05:36;;;;;;;10.40;6.68;;;;;;;13.77;64.49;98929.47;692977;28;1412;-91
2023/10/19 00:05:57;;;;;;;9.43;6.30;;;;;;;13.69;64.87;98921.69;696046;28;1276;-92
2023/10/19 00:06:18;;;;;;;11.70;6.60;;;;;;;13.74;64.91;98929.50;697857;28;1294;-92
2023/10/19 00:06:40;;;;;;;10.80;6.50;;;;;;;13.73;64.75;98927.75;697778;28;1047;-92
2023/10/19 00:07:04;;;;;;;11.10;6.90;;;;;;;13.66;64.50;98914.75;698913;28;1522;-93
2023/10/19 00:07:24;;;;;;;8.45;7.03;;;;;;;13.71;64.89;98920.78;696089;28;1906;-92
2023/10/19 00:07:46;;;;;;;9.33;6.87;;;;;;;13.79;64.93;98927.69;693257;28;1338;-92
2023/10/19 00:08:36;;;;;;;9.65;7.03;;;;;;;13.82;64.64;98933.75;695716;28;1199;-92
2023/10/19 00:08:52;;;;;;;9.60;6.68;;;;;;;13.80;64.87;98925.03;691254;28;1345;-92
2023/10/19 00:09:15;;;;;;;8.65;6.70;;;;;;;13.83;64.65;98926.75;688869;28;1296;-92
2023/10/19 00:09:37;;;;;;;9.80;6.65;;;;;;;13.81;64.70;98923.28;696133;28;1456;-92
2023/10/19 00:09:58;;;;;;;9.60;6.53;;;;;;;13.81;64.68;98920.66;690415;28;1629;-92
2023/10/19 00:10:19;;;;;;;9.95;6.85;;;;;;;13.78;64.61;98910.22;687952;28;1177;-93
2023/10/19 00:10:42;;;;;;;9.80;7.07;;;;;;;13.82;64.81;98919.75;690443;28;1109;-92
2023/10/19 00:11:10;;;;;;;11.18;7.00;;;;;;;13.82;64.72;98927.63;696249;28;1273;-92
2023/10/19 00:11:31;;;;;;;11.15;7.10;;;;;;;13.75;64.79;98907.66;695779;28;1210;-92
2023/10/19 00:11:51;;;;;;;9.65;7.28;;;;;;;13.81;64.77;98920.66;695859;28;1133;-92
2023/10/19 00:12:15;;;;;;;9.65;7.00;;;;;;;13.83;64.71;98924.13;690835;28;1197;-92
2023/10/19 00:12:36;;;;;;;10.02;6.90;;;;;;;13.81;64.71;98916.28;696094;28;1401;-92
2023/10/19 00:13:00;;;;;;;10.68;6.93;;;;;;;13.79;64.75;98912.84;693714;28;1266;-92
2023/10/19 00:13:22;;;;;;;9.82;7.15;;;;;;;13.76;65.02;98907.63;690450;28;1434;-93
2023/10/19 00:13:45;;;;;;;9.50;7.13;;;;;;;13.80;64.94;98918.91;693185;28;1210;-93
2023/10/19 00:14:15;;;;;;;6.93;6.22;;;;;;;13.75;65.13;98905.88;695843;28;1227;-92
2023/10/19 00:14:36;;;;;;;6.55;5.75;;;;;;;13.82;65.04;98910.16;690804;28;1219;-90
2023/10/19 00:14:57;;;;;;;7.80;6.20;;;;;;;13.84;64.88;98915.38;690169;28;1184;-92
2023/10/19 00:15:23;;;;;;;8.32;6.40;;;;;;;13.79;64.94;98911.94;693263;28;1129;-91
2023/10/19 00:15:48;;;;;;;8.43;6.63;;;;;;;13.78;65.07;98908.44;695889;28;1323;-91
2023/10/19 00:16:16;;;;;;;10.02;7.30;;;;;;;13.80;65.13;98903.19;690868;28;1236;-92
2023/10/19 00:16:37;;;;;;;8.85;6.95;;;;;;;13.85;64.96;98915.31;693091;28;1383;-92
2023/10/19 00:17:05;;;;;;;8.20;6.40;;;;;;;13.88;65.00;98919.66;688236;28;1197;-93
2023/10/19 00:17:27;;;;;;;8.43;6.70;;;;;;;13.80;64.98;98908.44;690666;28;1363;-92
2023/10/19 00:17:53;;;;;;;8.85;6.90;;;;;;;13.84;64.88;98913.59;693165;28;1293;-92
2023/10/19 00:18:42;;;;;;;9.65;6.65;;;;;;;13.89;64.95;98908.28;695460;28;1349;-92
2023/10/19 00:19:03;;;;;;;9.50;6.82;;;;;;;13.94;65.06;98922.19;693440;28;1241;-91
2023/10/19 00:19:27;;;;;;;8.63;7.18;;;;;;;13.93;65.07;98915.22;693342;28;1152;-92
2023/10/19 00:21:49;;;;;;;10.88;7.18;;;;;;;13.97;64.99;98911.66;676481;29;1231;-90
2023/10/19 00:22:15;;;;;;;11.43;7.93;;;;;;;13.95;65.00;98895.09;677286;29;1024;-90
2023/10/19 00:22:36;;;;;;;8.55;6.78;;;;;;;14.04;64.78;98914.19;681918;29;1237;-91
2023/10/19 00:22:58;;;;;;;12.00;7.20;;;;;;;13.95;64.83;98907.34;680021;28;1212;-92
2023/10/19 00:23:39;;;;;;;11.23;6.85;;;;;;;13.96;65.03;98904.69;679485;29;1333;-91
2023/10/19 00:24:05;;;;;;;8.52;6.88;;;;;;;13.98;65.16;98913.41;687975;28;1346;-91
2023/10/19 00:24:25;;;;;;;8.65;7.00;;;;;;;13.93;65.07;98909.09;690416;28;1044;-91
2023/10/19 00:24:46;;;;;;;9.00;7.22;;;;;;;13.96;65.04;98912.53;690605;28;1088;-92
2023/10/19 00:25:08;;;;;;;9.15;7.38;;;;;;;13.97;65.12;98906.41;696252;28;1324;-92
2023/10/19 00:25:34;;;;;;;8.85;7.30;;;;;;;13.93;64.86;98902.13;697629;28;1314;-94
2023/10/19 00:25:59;;;;;;;9.43;7.25;;;;;;;13.89;64.97;98896.94;699212;28;1278;-94
2023/10/19 00:26:25;;;;;;;10.23;7.50;;;;;;;13.88;65.00;98896.06;693551;28;1146;-94
2023/10/19 00:26:55;;;;;;;8.85;7.03;;;;;;;13.90;65.29;98894.28;693275;28;1434;-94
2023/10/19 00:27:17;;;;;;;8.40;7.00;;;;;;;13.92;65.14;98895.16;698283;28;1957;-93
2023/10/19 00:27:39;;;;;;;8.30;6.70;;;;;;;13.93;65.11;98899.50;687743;28;1298;-92
2023/10/19 00:28:03;;;;;;;7.75;6.70;;;;;;;13.94;65.26;98892.47;691058;28;1240;-94
2023/10/19 00:28:26;;;;;;;7.80;6.30;;;;;;;13.91;65.37;98889.91;693670;28;1280;-94
2023/10/19 00:28:52;;;;;;;7.80;6.45;;;;;;;13.93;65.26;98894.25;693474;28;1114;-92
2023/10/19 00:29:33;;;;;;;8.45;7.03;;;;;;;13.98;65.35;98904.66;690671;28;1273;-92
2023/10/19 00:30:02;;;;;;;8.60;7.22;;;;;;;13.94;65.26;98889.84;693219;28;1140;-93
2023/10/19 00:30:28;;;;;;;11.63;7.13;;;;;;;13.93;65.24;98888.13;692812;28;1212;-93
2023/10/19 00:30:53;;;;;;;11.05;6.90;;;;;;;13.95;65.12;98889.84;698809;28;1241;-92
2023/10/19 00:31:13;;;;;;;11.05;7.22;;;;;;;13.95;65.49;98889.00;690804;28;1220;-92
2023/10/19 00:31:39;;;;;;;8.63;7.10;;;;;;;13.93;65.41;98883.75;687989;28;1319;-93
2023/10/19 00:32:01;;;;;;;8.88;6.70;;;;;;;13.92;65.76;98886.41;693514;28;1188;-91
2023/10/19 00:32:24;;;;;;;8.82;6.70;;;;;;;13.93;65.75;98883.75;693204;28;1336;-93
2023/10/19 00:32:46;;;;;;;8.65;6.55;;;;;;;13.97;65.66;98885.44;690677;28;1252;-92
2023/10/19 00:33:16;;;;;;;9.25;6.72;;;;;;;13.94;65.53;98882.88;692381;28;1236;-93
2023/10/19 00:33:41;;;;;;;9.82;7.03;;;;;;;14.01;65.23;98882.78;693150;28;1301;-93
2023/10/19 00:34:03;;;;;;;9.93;7.28;;;;;;;13.92;65.57;98871.56;690893;28;1183;-93
2023/10/19 00:34:25;;;;;;;9.23;6.97;;;;;;;13.98;65.61;98876.69;693061;28;1311;-92
2023/10/19 00:34:51;;;;;;;8.50;6.10;;;;;;;13.98;65.65;98876.69;689893;28;1278;-93
2023/10/19 00:35:27;;;;;;;7.60;6.35;;;;;;;14.01;65.50;98877.53;693535;28;1229;-93
2023/10/19 00:36:07;;;;;;;11.35;7.20;;;;;;;14.05;65.18;98881.81;692470;28;1397;-92
2023/10/19 00:36:30;;;;;;;12.05;7.50;;;;;;;14.03;65.34;98866.13;693295;28;1231;-93
2023/10/19 00:36:52;;;;;;;9.15;7.63;;;;;;;14.07;65.46;98875.66;693104;28;1227;-92
2023/10/19 00:37:19;;;;;;;11.45;7.78;;;;;;;14.08;65.28;98876.53;693303;28;1216;-92
2023/10/19 00:37:42;;;;;;;11.35;7.82;;;;;;;14.04;65.58;98870.47;698675;28;1379;-92
2023/10/19 00:39:16;;;;;;;9.63;7.30;;;;;;;14.04;65.61;98875.72;690819;28;1347;-93
2023/10/19 00:39:47;;;;;;;8.20;6.70;;;;;;;14.10;65.35;98866.88;690221;28;1285;-93
2023/10/19 00:40:33;;;;;;;8.75;7.38;;;;;;;14.05;65.00;98872.22;687959;28;1125;-92
2023/10/19 00:41:21;;;;;;;9.52;7.80;;;;;;;14.10;65.41;98880.00;687851;28;1197;-92
2023/10/19 00:41:37;;;;;;;12.55;7.68;;;;;;;14.09;65.72;98870.41;687075;28;1232;-91
2023/10/19 00:41:58;;;;;;;11.35;7.15;;;;;;;14.08;65.61;98866.91;696289;28;1205;-92
2023/10/19 00:42:23;;;;;;;8.07;6.70;;;;;;;14.09;65.54;98868.63;698918;28;1211;-92
2023/10/19 00:42:46;;;;;;;9.13;6.97;;;;;;;14.14;65.61;98875.59;698379;28;1322;-93
2023/10/19 00:43:10;;;;;;;9.68;7.40;;;;;;;14.14;65.82;98878.22;693614;28;1207;-93
2023/10/19 00:43:44;;;;;;;9.55;7.80;;;;;;;14.13;65.70;98869.47;697651;28;1349;-93
2023/10/19 00:44:11;;;;;;;8.45;7.60;;;;;;;14.17;65.62;98879.03;696347;28;1307;-92
2023/10/19 00:44:38;;;;;;;11.13;7.47;;;;;;;14.17;65.81;98876.41;693517;28;1278;-92
2023/10/19 00:45:05;;;;;;;11.68;7.40;;;;;;;14.21;65.63;98882.47;693398;28;1149;-92
2023/10/19 00:45:27;;;;;;;9.32;7.13;;;;;;;14.12;65.96;98867.75;696182;28;1253;-92
2023/10/19 00:45:52;;;;;;;9.02;7.10;;;;;;;14.18;65.60;98870.28;696203;28;1267;-93
2023/10/19 00:46:43;;;;;;;9.32;6.80;;;;;;;14.12;65.63;98862.50;693259;28;1212;-93
2023/10/19 00:47:07;;;;;;;9.05;6.65;;;;;;;14.21;65.92;98872.81;688293;28;1097;-93
2023/10/19 00:47:35;;;;;;;8.98;6.70;;;;;;;14.22;65.62;98869.34;687835;28;1914;-93
2023/10/19 00:47:58;;;;;;;10.05;7.22;;;;;;;14.23;65.67;98872.81;693168;28;1243;-93
2023/10/19 00:48:23;;;;;;;10.40;7.60;;;;;;;14.22;65.49;98873.69;693368;28;1178;-92
2023/10/19 00:48:58;;;;;;;10.40;7.40;;;;;;;14.32;65.59;98877.03;690673;28;1196;-93
2023/10/19 00:49:23;;;;;;;10.32;7.00;;;;;;;14.29;65.32;98875.31;696148;28;1167;-93
2023/10/19 00:49:44;;;;;;;13.32;7.65;;;;;;;14.20;65.59;98865.84;693386;28;1201;-92
2023/10/19 00:50:05;;;;;;;12.70;7.88;;;;;;;14.21;65.62;98862.34;688343;28;1066;-93
2023/10/19 00:50:30;;;;;;;11.52;7.88;;;;;;;14.23;65.68;98868.44;693460;28;1337;-93
2023/10/19 00:51:06;;;;;;;10.05;7.75;;;;;;;14.21;65.57;98862.34;695210;28;1227;-93
2023/10/19 00:52:02;;;;;;;8.45;6.82;;;;;;;14.23;65.94;98864.94;693134;28;1220;-94
2023/10/19 00:53:12;;;;;;;9.70;7.65;;;;;;;14.33;65.51;98881.38;693387;28;1280;-93
2023/10/19 00:53:48;;;;;;;10.00;7.40;;;;;;;14.27;65.50;98868.38;693064;28;1368;-94
2023/10/19 00:54:26;;;;;;;8.98;7.20;;;;;;;14.30;65.55;98877.06;690828;28;1324;-93
2023/10/19 00:54:51;;;;;;;8.15;7.35;;;;;;;14.29;65.83;98864.84;693426;28;1203;-92
2023/10/19 00:55:13;;;;;;;8.15;7.35;;;;;;;14.29;65.55;98870.09;685441;28;1236;-93
2023/10/19 00:55:34;;;;;;;9.13;7.50;;;;;;;14.33;65.73;98881.38;693647;28;1302;-93
2023/10/19 00:55:55;;;;;;;10.05;7.70;;;;;;;14.29;65.83;98863.97;696465;28;1260;-93
2023/10/19 00:56:19;;;;;;;9.70;7.70;;;;;;;14.30;65.76;98865.69;690608;28;1248;-93
2023/10/19 00:56:51;;;;;;;9.23;7.60;;;;;;;14.31;65.81;98867.44;693414;28;1496;-93
2023/10/19 00:57:12;;;;;;;9.18;7.50;;;;;;;14.33;65.92;98870.91;690853;28;1256;-93
2023/10/19 00:57:34;;;;;;;9.00;7.43;;;;;;;14.34;65.79;98867.38;688192;28;1343;-93
2023/10/19 00:57:55;;;;;;;8.98;7.70;;;;;;;14.32;66.02;98861.31;696388;28;1148;-93
2023/10/19 00:58:18;;;;;;;8.95;7.97;;;;;;;14.36;65.88;98870.81;690158;28;1256;-94
2023/10/19 00:58:47;;;;;;;10.73;7.82;;;;;;;14.36;65.81;98860.34;690921;28;1342;-93
2023/10/19 00:59:14;;;;;;;10.38;7.40;;;;;;;14.35;65.75;98853.34;690967;28;1410;-93
2023/10/19 00:59:39;;;;;;;8.05;6.90;;;;;;;14.28;65.95;98855.25;685836;28;1396;-94
2023/10/19 01:00:21;;;;;;;9.25;7.15;;;;;;;14.35;65.69;98859.47;693695;28;1318;-94
2023/10/19 01:00:45;;;;;;;11.55;7.60;;;;;;;14.33;65.66;98855.16;693456;28;1243;-94
2023/10/19 01:01:06;;;;;;;10.50;7.50;;;;;;;14.42;65.30;98865.47;690573;28;1320;-94
2023/10/19 01:01:29;;;;;;;10.63;7.10;;;;;;;14.34;65.69;98852.50;696306;28;1386;-93
2023/10/19 01:01:53;;;;;;;8.98;6.68;;;;;;;14.33;65.65;98848.13;690845;28;1366;-93
2023/10/19 01:02:19;;;;;;;8.27;6.55;;;;;;;14.34;65.70;98859.50;690688;28;1309;-95
2023/10/19 01:02:46;;;;;;;9.70;6.30;;;;;;;14.42;65.88;98860.22;691000;28;1261;-94
2023/10/19 01:03:09;;;;;;;13.15;7.25;;;;;;;14.38;65.76;98853.31;695746;28;1300;-93
2023/10/19 01:03:36;;;;;;;11.95;7.63;;;;;;;14.37;65.68;98843.69;690813;28;1360;-93
2023/10/19 01:03:57;;;;;;;12.40;7.90;;;;;;;14.42;65.78;98860.22;696411;28;1239;-94
2023/10/19 01:04:22;;;;;;;11.77;7.60;;;;;;;14.37;65.76;98849.81;690503;28;1238;-94
2023/10/19 01:04:46;;;;;;;8.40;7.50;;;;;;;14.44;65.81;98861.06;693518;28;1407;-94
2023/10/19 01:05:08;;;;;;;8.00;7.20;;;;;;;14.40;65.69;98846.28;698524;28;1325;-94
2023/10/19 01:05:35;;;;;;;8.27;7.47;;;;;;;14.43;65.54;98851.44;698407;28;1277;-94
2023/10/19 01:05:57;;;;;;;9.32;7.93;;;;;;;14.43;66.07;98850.59;693875;28;1247;-94
2023/10/19 01:06:20;;;;;;;11.15;8.30;;;;;;;14.45;65.75;98854.91;690923;28;1243;-94
2023/10/19 01:06:44;;;;;;;11.23;8.07;;;;;;;14.39;65.77;98850.66;696313;28;1202;-95
2023/10/19 01:07:07;;;;;;;10.40;7.80;;;;;;;14.41;65.76;98850.63;691027;28;1312;-94
2023/10/19 01:07:30;;;;;;;11.05;8.05;;;;;;;14.45;65.83;98859.31;693664;28;1973;-94
2023/10/19 01:07:57;;;;;;;10.98;7.80;;;;;;;14.44;65.74;98847.94;693400;28;1193;-94
2023/10/19 01:08:24;;;;;;;11.52;7.13;;;;;;;14.48;65.92;98854.88;696250;28;1138;-94
2023/10/19 01:08:45;;;;;;;11.35;7.20;;;;;;;14.50;65.71;98862.72;696258;28;1116;-94
2023/10/19 01:09:06;;;;;;;10.25;7.20;;;;;;;14.54;65.65;98869.63;690892;28;1254;-94
2023/10/19 01:09:28;;;;;;;11.80;7.72;;;;;;;14.48;65.63;98861.88;693441;28;1401;-94
2023/10/19 01:09:53;;;;;;;13.15;8.15;;;;;;;14.48;65.72;98854.88;690996;28;1404;-94
2023/10/19 01:10:20;;;;;;;12.63;7.85;;;;;;;14.49;65.76;98856.59;688108;28;1440;-95
2023/10/19 01:10:43;;;;;;;10.00;7.32;;;;;;;14.47;65.81;98853.16;687724;28;1290;-94
2023/10/19 01:11:04;;;;;;;9.55;7.32;;;;;;;14.47;65.64;98845.28;690277;28;1294;-96
2023/10/19 01:11:28;;;;;;;10.50;7.57;;;;;;;14.45;65.83;98840.94;690916;28;1143;-94
2023/10/19 01:11:49;;;;;;;9.95;7.18;;;;;;;14.51;65.73;98860.03;688158;28;1227;-94
2023/10/19 01:12:25;;;;;;;10.45;6.60;;;;;;;14.49;65.98;98853.09;688360;28;1462;-94
2023/10/19 01:12:47;;;;;;;11.07;7.15;;;;;;;14.47;66.16;98847.00;687765;28;1302;-95
2023/10/19 01:13:09;;;;;;;11.68;7.80;;;;;;;14.53;65.91;98855.63;685416;28;1240;-95
2023/10/19 01:13:34;;;;;;;12.25;8.32;;;;;;;14.48;65.65;98840.88;693652;28;1095;-95
2023/10/19 01:13:55;;;;;;;10.20;7.70;;;;;;;14.52;65.82;98853.91;691029;28;1347;-94
2023/10/19 01:14:21;;;;;;;8.80;7.90;;;;;;;14.55;65.64;98850.34;690530;28;1210;-95
2023/10/19 01:14:42;;;;;;;9.85;7.90;;;;;;;14.61;65.79;98859.88;696345;28;1384;-94
2023/10/19 01:15:18;;;;;;;11.02;8.57;;;;;;;14.51;65.67;98844.31;690896;28;1122;-94
2023/10/19 01:15:40;;;;;;;9.82;7.60;;;;;;;14.58;65.81;98854.69;688340;28;1379;-94
2023/10/19 01:16:01;;;;;;;9.32;7.13;;;;;;;14.57;66.01;98853.81;693924;28;1216;-94
2023/10/19 01:16:22;;;;;;;9.97;7.60;;;;;;;14.54;65.69;98853.88;696401;28;1290;-95
2023/10/19 01:16:45;;;;;;;9.18;6.97;;;;;;;14.52;66.21;98837.31;696414;28;1300;-96
2023/10/19 01:17:06;;;;;;;11.10;7.70;;;;;;;14.58;65.86;98854.69;695895;28;1367;-94
2023/10/19 01:17:31;;;;;;;10.80;7.60;;;;;;;14.58;65.97;98854.69;693201;28;1383;-94
2023/10/19 01:17:56;;;;;;;10.68;7.80;;;;;;;14.65;65.88;98866.81;688167;28;1414;-93
2023/10/19 01:18:17;;;;;;;11.02;7.25;;;;;;;14.62;65.83;98851.13;693566;28;1476;-94
2023/10/19 01:18:41;;;;;;;11.70;7.60;;;;;;;14.55;65.86;98847.72;693539;28;1243;-94
2023/10/19 01:19:06;;;;;;;9.57;6.90;;;;;;;14.54;65.77;98843.38;693878;28;1213;-94
2023/10/19 01:19:27;;;;;;;7.85;7.05;;;;;;;14.58;66.11;98852.94;696299;28;1316;-95
2023/10/19 01:19:48;;;;;;;8.13;7.30;;;;;;;14.63;65.71;98858.09;693832;28;1056;-94
2023/10/19 01:20:21;;;;;;;7.93;6.93;;;;;;;14.56;65.99;98843.38;696337;28;1350;-94
2023/10/19 01:20:54;;;;;;;9.52;6.65;;;;;;;14.66;65.78;98858.91;699058;28;1255;-96
2023/10/19 01:21:18;;;;;;;8.68;6.75;;;;;;;14.63;65.88;98851.06;693545;28;1258;-94
2023/10/19 01:21:44;;;;;;;8.18;7.13;;;;;;;14.65;65.82;98856.31;692998;28;1392;-94
2023/10/19 01:22:05;;;;;;;9.32;8.07;;;;;;;14.63;65.81;98851.06;693730;28;1347;-95
2023/10/19 01:22:27;;;;;;;9.03;7.80;;;;;;;14.65;65.66;98851.91;690949;28;1203;-94
2023/10/19 01:23:28;;;;;;;8.77;7.88;;;;;;;14.64;65.62;98844.94;693542;28;1354;-94
2023/10/19 01:23:48;;;;;;;9.15;7.75;;;;;;;14.65;65.72;98844.03;690687;28;1308;-94
2023/10/19 01:24:12;;;;;;;8.95;7.55;;;;;;;14.65;65.65;98840.56;696304;28;1353;-95
2023/10/19 01:24:42;;;;;;;11.30;7.45;;;;;;;14.67;65.65;98844.00;693311;28;1318;-95
2023/10/19 01:25:10;;;;;;;13.57;8.00;;;;;;;14.64;65.94;98841.44;691062;28;1288;-95
2023/10/19 01:25:34;;;;;;;11.18;7.68;;;;;;;14.69;65.63;98852.69;692827;28;1196;-95
2023/10/19 01:26:27;;;;;;;8.98;7.07;;;;;;;14.71;65.69;98850.94;692655;28;1240;-95
2023/10/19 01:26:47;;;;;;;8.98;7.55;;;;;;;14.69;65.65;98847.47;690917;28;1380;-95
2023/10/19 01:27:11;;;;;;;13.23;8.03;;;;;;;14.72;65.59;98849.16;693529;28;1176;-95
2023/10/19 01:27:32;;;;;;;12.95;7.93;;;;;;;14.70;65.60;98837.84;690914;28;1983;-94
2023/10/19 01:27:57;;;;;;;12.75;7.63;;;;;;;14.73;65.58;98843.88;690632;28;1359;-95
2023/10/19 01:28:18;;;;;;;10.40;7.70;;;;;;;14.73;65.78;98848.25;688171;28;1304;-96
2023/10/19 01:28:47;;;;;;;10.68;8.20;;;;;;;14.72;65.80;98836.91;693220;28;1213;-95
2023/10/19 01:29:17;;;;;;;9.32;8.20;;;;;;;14.73;65.73;98843.88;696421;28;1360;-95
2023/10/19 01:29:39;;;;;;;8.85;7.45;;;;;;;14.73;65.85;98840.38;687778;28;1342;-94
2023/10/19 01:30:01;;;;;;;8.10;6.80;;;;;;;14.70;65.63;98840.47;694296;28;1177;-95
2023/10/19 01:30:22;;;;;;;10.65;6.68;;;;;;;14.73;65.86;98843.88;694185;28;1248;-95
2023/10/19 01:30:44;;;;;;;11.83;7.40;;;;;;;14.68;65.70;98832.59;691464;28;1178;-94
2023/10/19 01:31:06;;;;;;;11.10;7.60;;;;;;;14.71;65.79;98840.44;691198;28;1354;-95
2023/10/19 01:32:04;;;;;;;9.70;7.80;;;;;;;14.75;65.68;98847.34;691062;28;1358;-94
2023/10/19 01:32:29;;;;;;;9.55;7.30;;;;;;;14.72;65.82;98836.91;693228;28;1375;-96
2023/10/19 01:32:50;;;;;;;8.95;6.85;;;;;;;14.73;65.79;98835.13;693053;28;1244;-95
2023/10/19 01:33:15;;;;;;;8.90;6.72;;;;;;;14.69;65.89;98826.44;691024;28;1372;-95
2023/10/19 01:33:36;;;;;;;10.80;7.20;;;;;;;14.73;65.88;98835.13;699697;28;1362;-94
2023/10/19 01:34:00;;;;;;;11.90;7.50;;;;;;;14.76;65.91;98838.56;696551;28;1323;-94
2023/10/19 01:34:22;;;;;;;10.65;7.68;;;;;;;14.69;66.11;98823.81;693978;28;1446;-95
2023/10/19 01:34:43;;;;;;;10.70;7.55;;;;;;;14.69;66.15;98821.19;696673;28;1266;-94
2023/10/19 01:35:04;;;;;;;8.85;7.20;;;;;;;14.74;65.92;98835.13;691450;28;1260;-94
2023/10/19 01:35:26;;;;;;;8.50;7.10;;;;;;;14.72;65.71;98830.78;696828;28;1455;-93
2023/10/19 01:36:27;;;;;;;10.65;7.45;;;;;;;14.76;65.88;98837.72;690826;28;1215;-94
2023/10/19 01:36:50;;;;;;;10.38;7.50;;;;;;;14.72;65.83;98836.91;688621;28;1272;-94
2023/10/19 01:37:12;;;;;;;10.45;8.10;;;;;;;14.78;65.90;98841.16;694100;28;1216;-94
2023/10/19 01:37:37;;;;;;;11.13;8.73;;;;;;;14.74;65.68;98832.50;691460;28;1275;-94
2023/10/19 01:38:00;;;;;;;9.65;8.35;;;;;;;14.73;65.83;98833.38;691453;28;1374;-94
2023/10/19 01:38:20;;;;;;;9.57;8.02;;;;;;;14.71;65.75;98835.19;691285;28;1302;-93
2023/10/19 01:38:41;;;;;;;8.75;7.53;;;;;;;14.70;65.63;98829.97;688642;28;1085;-93
2023/10/19 01:39:09;;;;;;;10.15;7.70;;;;;;;14.72;65.86;98833.41;693504;28;1375;-96
2023/10/19 01:39:32;;;;;;;9.75;7.00;;;;;;;14.71;65.74;98827.31;694169;28;1261;-94
2023/10/19 01:39:53;;;;;;;9.48;6.82;;;;;;;14.73;65.86;98830.75;698814;28;1299;-94
2023/10/19 01:40:20;;;;;;;9.70;6.95;;;;;;;14.74;65.73;98832.50;691259;28;1101;-94
2023/10/19 01:40:46;;;;;;;11.55;7.80;;;;;;;14.72;65.91;98826.41;696596;28;1245;-94
2023/10/19 01:41:13;;;;;;;10.57;7.93;;;;;;;14.72;65.81;98821.16;691495;28;1233;-93
2023/10/19 01:41:34;;;;;;;12.02;8.45;;;;;;;14.76;65.68;98835.09;691299;28;1304;-93
2023/10/19 01:41:57;;;;;;;12.50;8.30;;;;;;;14.76;65.95;98832.47;690837;28;1240;-94
2023/10/19 01:42:20;;;;;;;11.05;7.85;;;;;;;14.67;66.02;98828.25;693571;28;1188;-93
2023/10/19 01:42:41;;;;;;;9.48;7.80;;;;;;;14.74;65.90;98835.13;693908;28;1232;-93
2023/10/19 01:43:02;;;;;;;10.40;8.02;;;;;;;14.69;66.18;98829.06;691333;28;1183;-93
2023/10/19 01:43:26;;;;;;;18.48;8.30;;;;;;;14.65;65.89;98825.66;687935;28;1403;-92
2023/10/19 01:43:54;;;;;;;18.30;7.93;;;;;;;14.74;65.82;98837.72;696733;28;1215;-91
2023/10/19 01:44:15;;;;;;;11.52;8.05;;;;;;;14.66;65.86;98829.16;693796;28;1258;-92
2023/10/19 01:44:36;;;;;;;9.25;7.95;;;;;;;14.64;66.08;98830.94;690712;28;1315;-92
2023/10/19 01:44:57;;;;;;;8.63;7.73;;;;;;;14.64;65.96;98825.69;693844;28;1320;-93
2023/10/19 01:45:18;;;;;;;8.90;7.78;;;;;;;14.65;66.09;98830.06;696136;28;1223;-91
2023/10/19 01:45:40;;;;;;;11.82;8.40;;;;;;;14.69;66.24;98830.84;696148;28;1341;-92
2023/10/19 01:46:06;;;;;;;14.30;9.27;;;;;;;14.71;65.86;98835.19;688573;28;1201;-92
2023/10/19 01:46:33;;;;;;;12.25;8.55;;;;;;;14.69;65.98;98831.69;696644;28;1268;-92
2023/10/19 01:46:55;;;;;;;11.07;8.50;;;;;;;14.67;66.13;98830.88;696641;28;1239;-92
2023/10/19 01:47:16;;;;;;;10.55;8.75;;;;;;;14.68;66.08;98835.22;696345;28;1910;-92
2023/10/19 01:47:40;;;;;;;10.38;8.32;;;;;;;14.67;66.14;98833.50;693724;28;1104;-92
2023/10/19 01:48:01;;;;;;;11.65;8.80;;;;;;;14.63;66.38;98821.34;688660;28;1321;-92
2023/10/19 01:48:33;;;;;;;11.18;8.20;;;;;;;14.64;66.09;98829.16;696541;28;1412;-92
2023/10/19 01:48:57;;;;;;;10.63;8.57;;;;;;;14.71;66.20;98840.44;693050;28;1308;-92
2023/10/19 01:49:25;;;;;;;10.25;8.57;;;;;;;14.65;66.29;98827.44;696666;28;1338;-92
2023/10/19 01:49:52;;;;;;;10.18;8.15;;;;;;;14.63;66.00;98821.34;698598;28;1364;-92
2023/10/19 01:50:19;;;;;;;9.30;7.72;;;;;;;14.67;66.20;98828.25;699469;28;1239;-92
2023/10/19 01:50:41;;;;;;;9.88;8.13;;;;;;;14.69;66.26;98836.94;691165;28;1211;-92
2023/10/19 01:51:04;;;;;;;12.73;8.95;;;;;;;14.67;66.31;98836.13;695976;28;1350;-92
2023/10/19 01:51:28;;;;;;;12.02;8.27;;;;;;;14.67;66.31;98838.75;696512;28;1250;-91
2023/10/19 01:51:49;;;;;;;11.60;8.00;;;;;;;14.65;66.27;98832.69;696640;28;1448;-93
2023/10/19 01:52:10;;;;;;;9.13;7.77;;;;;;;14.66;66.30;98837.03;696533;28;1142;-93
2023/10/19 01:52:30;;;;;;;9.90;7.95;;;;;;;14.65;66.36;98828.28;689457;28;1191;-92
2023/10/19 01:52:51;;;;;;;9.38;8.00;;;;;;;14.65;66.24;98832.69;692972;28;1176;-93
2023/10/19 01:53:15;;;;;;;9.95;8.02;;;;;;;14.60;66.28;98821.38;691270;28;1254;-92
2023/10/19 01:53:46;;;;;;;9.57;7.95;;;;;;;14.70;66.28;98833.47;690307;28;1272;-93
2023/10/19 01:54:07;;;;;;;9.80;8.43;;;;;;;14.67;66.24;98833.50;691706;28;1275;-92
2023/10/19 01:54:28;;;;;;;11.02;9.00;;;;;;;14.66;66.19;98832.66;691206;28;1168;-93
2023/10/19 01:54:55;;;;;;;11.65;8.82;;;;;;;14.70;66.22;98836.09;693869;28;1289;-93
2023/10/19 01:55:21;;;;;;;10.63;8.13;;;;;;;14.60;66.20;98821.38;693911;28;1100;-93
2023/10/19 01:55:47;;;;;;;10.30;7.63;;;;;;;14.58;66.39;98820.56;688498;28;1165;-91
2023/10/19 01:56:09;;;;;;;8.43;7.15;;;;;;;14.64;66.38;98823.94;691272;28;1338;-92
2023/10/19 01:56:30;;;;;;;9.10;7.10;;;;;;;14.65;66.49;98824.81;696687;28;1413;-93
2023/10/19 01:56:54;;;;;;;10.68;7.63;;;;;;;14.66;66.51;98826.53;696584;28;1478;-92
2023/10/19 01:57:15;;;;;;;12.20;8.25;;;;;;;14.66;66.49;98827.41;696621;28;1078;-93
2023/10/19 01:57:39;;;;;;;11.13;8.32;;;;;;;14.65;66.35;98824.81;695874;28;1248;-93
2023/10/19 02:02:16;;;;;;;9.95;8.02;;;;;;;14.76;66.43;98832.47;699380;28;1353;-93
2023/10/19 02:02:56;;;;;;;10.85;8.30;;;;;;;14.68;66.57;98819.47;699657;28;702;-92
2023/10/19 02:03:36;;;;;;;10.77;8.00;;;;;;;14.70;66.58;98822.09;702489;28;687;-92
2023/10/19 02:04:08;;;;;;;10.68;8.20;;;;;;;14.71;66.42;98819.44;699566;28;1118;-93
2023/10/19 02:04:30;;;;;;;11.88;7.97;;;;;;;14.70;66.18;98825.59;691185;28;1211;-92
2023/10/19 02:04:55;;;;;;;11.18;7.90;;;;;;;14.75;66.48;98826.34;693350;28;1219;-93
2023/10/19 02:05:16;;;;;;;12.18;8.20;;;;;;;14.69;66.39;98821.19;693451;28;1317;-93
2023/10/19 02:05:42;;;;;;;13.30;8.65;;;;;;;14.72;66.46;98826.41;688428;28;1364;-93
2023/10/19 02:06:11;;;;;;;13.00;8.70;;;;;;;14.70;66.73;98824.72;694066;28;1433;-93
2023/10/19 02:06:38;;;;;;;9.35;8.35;;;;;;;14.73;66.63;98828.13;696014;28;1281;-93
2023/10/19 02:07:01;;;;;;;9.98;8.05;;;;;;;14.72;66.58;98817.66;688672;28;1169;-94
2023/10/19 02:07:23;;;;;;;10.75;8.52;;;;;;;14.70;66.42;98817.72;693436;28;1910;-93
2023/10/19 02:07:43;;;;;;;9.25;8.32;;;;;;;14.75;66.43;98828.13;694157;28;1461;-93
2023/10/19 02:08:07;;;;;;;8.95;7.90;;;;;;;14.77;66.31;98827.16;687905;28;1282;-93
2023/10/19 02:08:30;;;;;;;9.68;7.85;;;;;;;14.72;66.50;98825.53;691128;28;1330;-93
2023/10/19 02:08:56;;;;;;;9.05;7.70;;;;;;;14.68;66.46;98808.13;691228;28;1375;-93
2023/10/19 02:09:40;;;;;;;8.52;7.57;;;;;;;14.70;66.28;98812.47;698946;28;1380;-92
2023/10/19 02:10:02;;;;;;;8.57;7.47;;;;;;;14.69;66.62;98815.94;696075;28;1372;-94